TFM - Tactical Decision Aid
ID: Runway Winds: CIG/VIS Threshold:

KSBM - Sheboygan Cnty Mem, WI, US

Updated at: 0351 UTC 30 Jun 2022
Latest TAF at: 0308 UTC 30 Jun 2022

TAF Board

Time0253Z 30/04Z 30/05Z 30/06Z 30/07Z 30/08Z 30/09Z 30/10Z 30/11Z 30/12Z 30/13Z 30/14Z 30/15Z 30/16Z>>
Type OBS PRVL PRVL PRVL PRVL PRVL PRVL PRVL PRVL PRVL PRVL PRVL PRVL PRVL
VIS 10 >6 >6 >6 >6 >6 >6 >6 >6 >6 >6 >6 >6 >6
CIG -- -- -- -- -- -- -- -- -- -- -- -- -- --
Cover CLR SKC SKC SKC SKC SKC SKC SCT SCT SCT FEW FEW FEW FEW
FltCat VFR VFR VFR VFR VFR VFR VFR VFR VFR VFR VFR VFR VFR VFR
WX -- -- -- -- -- -- -- -- -- -- -- -- -- --
WDir 170 170 170 170 170 170 170 200 200 200 220 220 220 220
WSpd 4 6 6 6 6 6 6 9 9 9 13 13 13 13
WGst -- -- -- -- -- -- -- -- -- -- 26 26 26 26
WSHgt -- -- -- -- -- -- -- 2000 2000 2000 -- -- -- --
WSDir -- -- -- -- -- -- -- 240 240 240 -- -- -- --
WSSpd -- -- -- -- -- -- -- 40 40 40 -- -- -- --
R04/22
XWnd -3 -4 -4 -4 -4 -4 -4 -2 -2 -2 1 1 1 1
XGst -- -- -- -- -- -- -- -- -- -- 2 2 2 2
HWnd -3 -4 -4 -4 -4 -4 -4 -9 -9 -9 -13 -13 -13 -13
HGst -- -- -- -- -- -- -- -- -- -- -26 -26 -26 -26
R13/31
XWnd -3 -4 -4 -4 -4 -4 -4 -8 -8 -8 -13 -13 -13 -13
XGst -- -- -- -- -- -- -- -- -- -- -26 -26 -26 -26
HWnd 3 5 5 5 5 5 5 3 3 3 0 0 0 0
HGst -- -- -- -- -- -- -- -- -- -- 0 0 0 0

TDA Impact Legend

  None Marginal Slight Moderate High
Visibility (sm) >5 2.9≤X≤5 0.9≤X<2.9 <0.9
Ceiling (100 ft) >30 9.9≤X≤30 4.9≤X<9.9 <4.9
Wind Speed (kt) <15 15≤X<25 25≤X<30 ≥30
Wind Gust (kt) <15 15≤X<25 25≤X<35 ≥35
Weather No Wx Reported VCTS -TS,-FZRA TS,FZRA +TS,+FZRA
TAF
KSBM 300308Z 3003/3024 17006KT P6SM SKC
  FM301000 20009KT P6SM SCT220 WS020/24040KT
  FM301300 22013G26KT P6SM FEW210


METAR
KSBM 300253Z AUTO 17004KT 10SM CLR 16/14 A3011 RMK AO2 SLP196 T01610144 56013
KSBM 300153Z AUTO 16004KT 10SM CLR 17/14 A3012 RMK AO2 SLP199 T01720144
KSBM 300053Z AUTO 14004KT 10SM CLR 19/15 A3013 RMK AO2 SLP200 T01940150

Radar Display
Forecast Discussion